Terminal Aerodrome Forecast
Issued by NWS

Home | Current Version | Previous Version | Text Only | Print | Product List | Glossary On
Versions: 1 2 3 4 5 6 7 8 9 10 11 12 13
000
FTUS46 KMTR 041120
TAFOAK
TAF
KOAK 041120Z 0412/0518 05004KT P6SM FEW200
     FM041900 29007KT P6SM SCT200
     FM050400 30009KT P6SM SCT015 BKN200
     FM050800 28007KT P6SM OVC010
     FM051700 29005KT P6SM SCT015=

USA.gov is the U.S. government's official web portal to all federal, state and local government web resources and services.